Time;durP1;ratioP1;P1;durP2;ratioP2;P2;SDS_P1;SDS_P2;PMS_P1;PMS_P2;Temp;Humidity;BMP_temperature;BMP_pressure;BME280_temperature;BME280_humidity;BME280_pressure;Samples;Min_cycle;Max_cycle;Signal;HPM_P1;HPM_P2
2022/11/19 00:00:07;;;;;;;7.33;5.47;;;11.40;99.90;;;;;;4934044;28;20484;-85
2022/11/19 00:02:48;;;;;;;6.90;6.20;;;11.50;99.90;;;;;;4948337;29;20457;-89
2022/11/19 00:05:59;;;;;;;7.37;5.87;;;11.40;99.90;;;;;;4933269;29;21064;-86
2022/11/19 00:08:43;;;;;;;7.00;6.30;;;11.30;99.90;;;;;;4930708;29;21713;-84
2022/11/19 00:14:42;;;;;;;6.83;6.13;;;11.20;99.90;;;;;;4943984;28;20461;-86
2022/11/19 00:18:16;;;;;;;7.07;6.37;;;11.20;99.90;;;;;;4929380;28;20496;-84
2022/11/19 00:21:06;;;;;;;8.93;6.83;;;11.20;99.90;;;;;;4946519;28;20467;-85
2022/11/19 00:23:49;;;;;;;7.93;7.20;;;11.10;99.90;;;;;;4945397;28;20485;-85
2022/11/19 00:26:34;;;;;;;8.90;6.93;;;11.10;99.90;;;;;;4932059;29;20472;-87
2022/11/19 00:29:47;;;;;;;9.40;6.87;;;11.30;99.90;;;;;;4951456;28;20460;-86
2022/11/19 00:32:41;;;;;;;7.63;6.80;;;11.10;99.90;;;;;;4948447;28;20457;-85
2022/11/19 00:35:43;;;;;;;13.37;5.53;;;11.30;99.90;;;;;;4917588;28;20481;-86
2022/11/19 00:38:30;;;;;;;7.17;5.47;;;11.20;99.90;;;;;;4942710;28;20469;-84
2022/11/19 00:41:23;;;;;;;6.47;5.87;;;11.10;99.90;;;;;;4930276;29;20813;-87
2022/11/19 00:43:59;;;;;;;6.87;5.43;;;11.00;99.90;;;;;;4947080;28;20484;-86
2022/11/19 00:46:56;;;;;;;;;;;;;;;;;;;;;
2022/11/19 00:49:56;;;;;;;7.20;5.80;;;11.20;99.90;;;;;;4955656;28;20461;-87
2022/11/19 00:52:40;;;;;;;6.43;5.93;;;11.10;99.90;;;;;;4951773;28;21401;-87
2022/11/19 00:55:43;;;;;;;6.27;5.10;;;11.00;99.90;;;;;;4918737;29;21147;-87
2022/11/19 00:58:27;;;;;;;5.37;4.87;;;10.80;99.90;;;;;;4950590;28;20488;-87
2022/11/19 01:12:39;;;;;;;;;;;;;;;;;;;;;
2022/11/19 01:15:20;;;;;;;6.50;5.90;;;11.10;99.90;;;;;;4985572;28;20475;-85
2022/11/19 01:18:39;;;;;;;6.37;5.77;;;11.10;99.90;;;;;;4959368;28;20555;-85
2022/11/19 01:21:25;;;;;;;6.13;5.53;;;11.00;99.90;;;;;;4968910;28;20448;-86
2022/11/19 01:24:14;;;;;;;6.27;5.67;;;10.70;99.90;;;;;;4968924;28;20485;-86
2022/11/19 01:33:12;;;;;;;7.90;7.10;;;11.00;99.90;;;;;;4953599;28;20443;-84
2022/11/19 01:36:20;;;;;;;7.00;6.30;;;11.00;99.90;;;;;;4987367;28;20491;-86
2022/11/19 01:38:58;;;;;;;7.93;7.13;;;11.10;99.90;;;;;;4974135;28;20509;-84
2022/11/19 01:42:48;;;;;;;11.20;7.63;;;11.20;99.90;;;;;;4979961;28;20499;-84
2022/11/19 01:45:16;;;;;;;;;;;;;;;;;;;;;
2022/11/19 01:48:14;;;;;;;12.80;7.57;;;11.30;99.90;;;;;;4990375;28;20530;-87
2022/11/19 01:54:57;;;;;;;12.53;7.80;;;11.20;99.90;;;;;;4982857;28;20474;-85
2022/11/19 01:58:07;;;;;;;8.83;7.60;;;11.20;99.90;;;;;;4953239;28;20555;-86
2022/11/19 02:00:54;;;;;;;8.80;7.20;;;11.10;99.90;;;;;;4983526;28;20748;-86
2022/11/19 02:04:00;;;;;;;9.57;7.70;;;11.10;99.90;;;;;;4983224;28;20482;-86
2022/11/19 02:06:50;;;;;;;10.33;8.40;;;11.10;99.90;;;;;;4989191;28;20451;-85
2022/11/19 02:09:37;;;;;;;8.60;6.70;;;11.00;99.90;;;;;;4991170;28;20482;-88
2022/11/19 02:12:49;;;;;;;7.20;6.50;;;11.10;99.90;;;;;;4991213;28;20430;-85
2022/11/19 02:15:59;;;;;;;;;;;;;;;;;;;;;
2022/11/19 02:19:05;;;;;;;9.30;7.90;;;11.10;99.90;;;;;;4987398;28;20498;-87
2022/11/19 02:22:33;;;;;;;10.07;8.80;;;11.00;99.90;;;;;;4970098;28;20498;-84
2022/11/19 02:25:53;;;;;;;8.70;7.10;;;11.00;99.90;;;;;;4947068;23;20568;-86
2022/11/19 02:32:25;;;;;;;10.00;7.90;;;11.20;99.90;;;;;;4952838;28;20484;-85
2022/11/19 02:35:21;;;;;;;9.03;8.13;;;11.10;99.90;;;;;;4978125;28;20971;-84
2022/11/19 02:38:30;;;;;;;8.43;7.57;;;11.30;99.90;;;;;;4920950;29;20459;-85
2022/11/19 02:45:30;;;;;;;11.70;9.50;;;11.30;99.90;;;;;;4916827;28;20516;-87
2022/11/19 02:48:48;;;;;;;10.37;8.97;;;11.50;99.90;;;;;;4926765;29;20485;-87
2022/11/19 02:52:07;;;;;;;9.70;8.70;;;11.40;99.90;;;;;;4925320;29;20443;-87
2022/11/19 02:55:16;;;;;;;9.40;8.10;;;11.50;99.90;;;;;;4941896;28;21274;-90
2022/11/19 03:04:28;;;;;;;10.20;8.27;;;11.30;99.90;;;;;;4920060;29;20493;-88
2022/11/19 03:04:50;;;;;;;9.90;8.00;;;11.00;99.90;;;;;;4919816;28;20519;-86
2022/11/19 03:07:35;;;;;;;9.90;8.70;;;11.10;99.90;;;;;;4904572;29;20516;-85
2022/11/19 03:10:26;;;;;;;9.53;7.07;;;11.10;99.90;;;;;;4903240;29;20474;-84
2022/11/19 03:17:24;;;;;;;4.53;4.13;;;11.00;99.90;;;;;;4972554;28;20525;-85
2022/11/19 03:20:37;;;;;;;3.50;3.20;;;10.80;99.90;;;;;;4964160;28;20542;-82
2022/11/19 03:23:38;;;;;;;3.10;2.80;;;10.40;99.90;;;;;;4971819;28;20558;-87
2022/11/19 03:26:41;;;;;;;3.00;2.80;;;10.60;99.90;;;;;;4966920;28;20524;-85
2022/11/19 03:29:26;;;;;;;2.97;2.00;;;10.50;99.90;;;;;;4966283;28;20481;-85
2022/11/19 03:32:19;;;;;;;2.53;1.90;;;10.30;99.90;;;;;;4962851;28;21664;-85
2022/11/19 03:35:04;;;;;;;2.30;2.10;;;10.20;99.90;;;;;;4964505;28;20501;-85
2022/11/19 03:37:43;;;;;;;1.70;1.60;;;10.30;99.90;;;;;;4962111;28;20525;-87
2022/11/19 03:40:29;;;;;;;2.40;2.20;;;10.30;99.90;;;;;;4968202;28;21125;-88
2022/11/19 03:43:26;;;;;;;2.67;2.47;;;10.20;99.90;;;;;;4975647;28;20451;-86
2022/11/19 03:46:39;;;;;;;2.43;1.97;;;10.30;99.90;;;;;;4902829;29;20471;-86
2022/11/19 03:49:27;;;;;;;2.03;1.83;;;10.20;99.90;;;;;;4898952;29;20457;-85
2022/11/19 03:52:23;;;;;;;2.27;1.30;;;10.20;99.90;;;;;;4885648;29;21205;-87
2022/11/19 03:54:59;;;;;;;1.37;1.27;;;10.10;99.90;;;;;;4901841;29;20828;-86
2022/11/19 04:01:25;;;;;;;1.40;1.20;;;9.80;99.90;;;;;;4920532;29;20467;-87
2022/11/19 04:07:22;;;;;;;1.00;0.90;;;9.40;99.90;;;;;;4936020;29;20465;-87
2022/11/19 04:10:17;;;;;;;0.80;0.80;;;9.20;99.90;;;;;;4907938;29;20439;-85
2022/11/19 04:12:57;;;;;;;0.73;0.73;;;9.00;99.90;;;;;;4923440;29;20523;-87
2022/11/19 04:18:49;;;;;;;2.90;1.10;;;8.70;99.90;;;;;;4901063;29;20545;-85
2022/11/19 04:21:48;;;;;;;1.37;1.00;;;8.60;99.90;;;;;;4931355;28;20506;-83
2022/11/19 04:24:46;;;;;;;0.90;0.90;;;8.40;99.90;;;;;;4965880;28;20730;-84
2022/11/19 04:27:49;;;;;;;0.93;0.83;;;8.30;99.90;;;;;;4961976;28;21023;-85
2022/11/19 04:30:29;;;;;;;1.13;1.00;;;8.10;99.90;;;;;;4965789;28;20462;-87
2022/11/19 04:33:04;;;;;;;1.30;1.20;;;8.20;99.90;;;;;;4967344;28;20458;-87
2022/11/19 04:36:09;;;;;;;1.47;0.80;;;8.20;99.90;;;;;;5006294;28;20487;-87
2022/11/19 04:38:55;;;;;;;0.80;0.80;;;8.20;99.90;;;;;;4993062;28;20504;-85
2022/11/19 04:41:55;;;;;;;3.13;1.00;;;8.30;99.90;;;;;;4999030;28;20959;-85
2022/11/19 04:45:00;;;;;;;1.37;1.27;;;8.20;99.90;;;;;;4991550;28;20486;-85
2022/11/19 04:47:40;;;;;;;1.47;1.37;;;8.00;99.90;;;;;;5002076;28;20448;-86
2022/11/19 04:50:49;;;;;;;1.60;1.50;;;7.90;99.90;;;;;;5015159;28;20511;-87
2022/11/19 04:56:46;;;;;;;1.40;1.30;;;8.00;99.90;;;;;;5017548;28;20451;-88
2022/11/19 04:59:31;;;;;;;1.70;1.60;;;8.10;99.90;;;;;;4987019;28;20454;-86
2022/11/19 05:02:48;;;;;;;1.83;1.73;;;8.20;99.90;;;;;;5003419;28;20469;-87
2022/11/19 05:05:31;;;;;;;1.87;1.73;;;8.10;99.90;;;;;;5000499;28;20576;-88
2022/11/19 05:08:37;;;;;;;1.40;1.30;;;8.10;99.90;;;;;;4996854;28;20449;-85
2022/11/19 05:11:15;;;;;;;2.00;1.80;;;8.10;99.90;;;;;;5000962;28;20465;-85
2022/11/19 05:14:17;;;;;;;1.90;1.80;;;7.90;99.90;;;;;;4997906;28;20481;-85
2022/11/19 05:17:16;;;;;;;2.73;2.30;;;7.90;99.90;;;;;;5000398;28;20499;-86
2022/11/19 05:20:18;;;;;;;2.70;2.50;;;7.80;99.90;;;;;;4997868;28;20521;-84
2022/11/19 05:23:38;;;;;;;;;;;;;;;;;;;;;
2022/11/19 05:26:34;;;;;;;2.73;2.10;;;7.80;99.90;;;;;;5016185;28;20446;-86
2022/11/19 05:29:52;;;;;;;;;;;;;;;;;;;;;
2022/11/19 05:32:55;;;;;;;3.87;3.00;;;7.70;99.90;;;;;;5007325;28;20859;-84
2022/11/19 05:35:47;;;;;;;4.20;3.30;;;7.60;99.90;;;;;;5008196;28;20479;-87
2022/11/19 05:38:53;;;;;;;5.40;3.90;;;7.60;99.90;;;;;;5008424;28;20596;-85
2022/11/19 05:41:37;;;;;;;4.60;3.50;;;7.50;99.90;;;;;;4993863;28;20468;-86
2022/11/19 05:44:54;;;;;;;5.10;4.10;;;7.60;99.90;;;;;;5010788;28;20472;-86
2022/11/19 05:47:41;;;;;;;4.93;4.17;;;7.50;99.90;;;;;;5004676;28;21001;-88
2022/11/19 05:50:36;;;;;;;5.17;4.00;;;7.50;99.90;;;;;;5004841;28;20457;-88
2022/11/19 05:53:28;;;;;;;4.27;3.73;;;7.50;99.90;;;;;;4997369;28;20611;-87
2022/11/19 05:56:11;;;;;;;5.30;4.43;;;7.50;99.90;;;;;;5000742;28;20472;-87
2022/11/19 05:59:02;;;;;;;5.30;4.47;;;7.50;99.90;;;;;;5008585;28;20527;-85
2022/11/19 06:05:09;;;;;;;5.23;4.50;;;7.40;99.90;;;;;;5018080;28;20464;-86
2022/11/19 06:10:52;;;;;;;5.40;4.90;;;7.40;99.90;;;;;;4971472;28;20506;-88
2022/11/19 06:13:58;;;;;;;;;;;;;;;;;;;;;
2022/11/19 06:16:53;;;;;;;6.40;4.30;;;7.60;99.90;;;;;;5012110;28;20488;-87
2022/11/19 06:19:42;;;;;;;6.50;4.93;;;7.40;99.90;;;;;;4999485;28;20635;-85
2022/11/19 06:22:48;;;;;;;7.67;6.07;;;7.40;99.90;;;;;;5000956;28;20540;-85
2022/11/19 06:25:58;;;;;;;7.53;5.70;;;7.10;99.90;;;;;;5020107;28;20498;-87
2022/11/19 06:28:50;;;;;;;7.30;5.77;;;7.10;99.90;;;;;;4998687;28;21030;-85
2022/11/19 06:31:45;;;;;;;;;;;;;;;;;;;;;
2022/11/19 06:34:37;;;;;;;6.90;6.17;;;7.30;99.90;;;;;;5012387;28;21284;-87
2022/11/19 06:37:43;;;;;;;15.60;9.27;;;7.00;99.90;;;;;;4989092;28;20477;-84
2022/11/19 06:40:16;;;;;;;9.67;7.07;;;6.90;99.90;;;;;;4998681;28;20597;-84
2022/11/19 06:43:12;;;;;;;9.20;7.23;;;7.00;99.90;;;;;;5002569;28;20527;-85
2022/11/19 06:46:33;;;;;;;10.33;8.60;;;7.00;99.90;;;;;;5003122;28;20478;-84
2022/11/19 06:49:04;;;;;;;10.77;8.27;;;7.00;99.90;;;;;;4958929;28;20550;-88
2022/11/19 06:51:46;;;;;;;11.97;8.70;;;7.00;99.90;;;;;;5000421;28;20479;-86
2022/11/19 06:54:34;;;;;;;11.40;8.90;;;6.90;99.90;;;;;;5001530;28;20506;-87
2022/11/19 06:57:16;;;;;;;10.77;8.67;;;6.90;99.90;;;;;;5000482;28;20486;-83
2022/11/19 07:00:09;;;;;;;11.30;8.93;;;6.70;99.90;;;;;;5016708;28;20460;-86
2022/11/19 07:03:02;;;;;;;10.33;8.00;;;6.80;99.90;;;;;;5002924;28;21198;-87
2022/11/19 07:05:37;;;;;;;12.67;8.53;;;6.60;99.90;;;;;;5009665;28;20502;-88
2022/11/19 07:08:07;;;;;;;16.13;10.00;;;6.60;99.90;;;;;;5015922;28;20510;-89
2022/11/19 07:10:43;;;;;;;12.43;9.20;;;6.50;99.90;;;;;;5015710;28;20454;-89
2022/11/19 07:17:10;;;;;;;;;;;;;;;;;;;;;
2022/11/19 07:19:55;;;;;;;11.33;9.00;;;6.60;99.90;;;;;;5009099;28;20558;-85
2022/11/19 07:22:51;;;;;;;12.30;9.00;;;6.80;99.90;;;;;;4974149;28;20467;-84
2022/11/19 07:25:43;;;;;;;;;;;;;;;;;;;;;
2022/11/19 07:28:15;;;;;;;16.53;10.87;;;6.70;99.90;;;;;;4974009;28;20526;-88
2022/11/19 07:31:19;;;;;;;11.20;9.53;;;6.80;99.90;;;;;;4961029;28;20465;-85
2022/11/19 07:34:05;;;;;;;12.13;8.60;;;6.90;99.90;;;;;;4990902;22;20521;-86
2022/11/19 07:36:48;;;;;;;13.17;9.80;;;6.90;99.90;;;;;;4946973;29;20493;-85
2022/11/19 07:39:55;;;;;;;13.97;10.67;;;6.70;99.90;;;;;;4946040;28;20474;-85
2022/11/19 07:42:50;;;;;;;14.00;10.40;;;6.70;99.90;;;;;;4931669;29;20497;-86
2022/11/19 07:45:45;;;;;;;13.30;10.53;;;6.90;99.90;;;;;;4927421;29;20471;-86
2022/11/19 07:48:31;;;;;;;13.93;9.73;;;6.80;99.90;;;;;;4929598;29;20520;-86
2022/11/19 07:51:12;;;;;;;12.57;10.00;;;6.80;99.90;;;;;;4902225;29;21201;-86
2022/11/19 07:54:01;;;;;;;12.47;9.87;;;6.80;99.90;;;;;;4925012;29;20589;-86
2022/11/19 07:57:05;;;;;;;13.40;8.80;;;6.80;99.90;;;;;;4927789;29;20469;-86
2022/11/19 08:00:12;;;;;;;13.13;10.83;;;6.80;99.90;;;;;;4926161;29;20528;-86
2022/11/19 08:03:07;;;;;;;13.33;10.17;;;6.90;99.90;;;;;;4931645;29;20483;-85
2022/11/19 08:09:19;;;;;;;11.87;9.60;;;7.00;99.90;;;;;;4927350;29;20482;-86
2022/11/19 08:12:06;;;;;;;13.10;10.83;;;7.00;99.90;;;;;;4918605;29;20540;-86
2022/11/19 08:14:55;;;;;;;12.60;9.20;;;7.00;99.90;;;;;;4925984;29;20490;-86
2022/11/19 08:20:42;;;;;;;15.00;10.97;;;7.00;99.90;;;;;;4934030;29;20479;-88
2022/11/19 08:27:10;;;;;;;14.00;10.80;;;6.90;99.90;;;;;;4949238;28;20439;-87
2022/11/19 08:29:56;;;;;;;14.10;9.57;;;6.80;99.90;;;;;;4944612;28;20452;-88
2022/11/19 08:36:08;;;;;;;13.80;10.20;;;6.70;99.90;;;;;;4940355;28;20448;-87
2022/11/19 08:39:01;;;;;;;12.87;8.67;;;6.70;99.90;;;;;;4934118;29;20483;-86
2022/11/19 08:44:59;;;;;;;14.27;10.80;;;6.60;99.90;;;;;;4938232;29;20508;-85
2022/11/19 08:47:43;;;;;;;12.67;9.70;;;6.30;99.90;;;;;;4938499;29;20501;-87
2022/11/19 08:50:31;;;;;;;13.67;10.27;;;6.60;99.90;;;;;;4938463;29;20475;-85
2022/11/19 08:53:24;;;;;;;10.67;7.47;;;6.70;99.90;;;;;;4941389;28;20453;-87
2022/11/19 08:56:25;;;;;;;13.63;9.10;;;6.80;99.90;;;;;;4937770;28;20445;-88
2022/11/19 08:59:40;;;;;;;13.50;9.87;;;6.60;99.90;;;;;;4938633;29;20637;-85
2022/11/19 09:02:46;;;;;;;12.63;9.13;;;6.50;99.90;;;;;;4932407;29;20458;-86
2022/11/19 09:05:32;;;;;;;13.53;10.43;;;6.70;99.90;;;;;;4929115;29;20487;-86
2022/11/19 09:08:51;;;;;;;12.17;9.40;;;6.70;99.90;;;;;;4922674;29;20459;-86
2022/11/19 09:12:29;;;;;;;11.20;8.40;;;6.80;99.90;;;;;;4927036;29;20451;-86
2022/11/19 09:15:47;;;;;;;11.07;8.40;;;6.80;99.90;;;;;;4924178;29;20524;-87
2022/11/19 09:18:48;;;;;;;12.10;9.03;;;6.90;99.90;;;;;;4927909;29;20499;-87
2022/11/19 09:25:24;;;;;;;12.50;9.10;;;6.80;99.90;;;;;;4929873;29;20482;-87
2022/11/19 09:28:29;;;;;;;10.97;8.33;;;7.00;99.90;;;;;;4907843;29;20479;-85
2022/11/19 09:31:38;;;;;;;11.57;8.57;;;7.30;99.90;;;;;;4922495;29;20534;-85
2022/11/19 09:34:17;;;;;;;12.00;8.70;;;7.30;99.90;;;;;;4928588;29;20500;-87
2022/11/19 09:37:22;;;;;;;12.40;9.17;;;7.20;99.90;;;;;;4929815;29;20444;-83
2022/11/19 09:40:42;;;;;;;13.40;8.80;;;7.20;99.90;;;;;;4920591;29;20463;-85
2022/11/19 09:47:32;;;;;;;10.07;8.00;;;7.10;99.80;;;;;;4934960;29;20463;-88
2022/11/19 09:50:53;;;;;;;10.30;8.00;;;6.90;99.90;;;;;;4933679;29;20466;-85
2022/11/19 09:54:09;;;;;;;9.23;7.53;;;6.90;99.90;;;;;;4929397;29;20519;-86
2022/11/19 09:56:53;;;;;;;13.47;9.47;;;7.00;99.90;;;;;;4943073;29;20495;-86
2022/11/19 10:00:11;;;;;;;10.70;8.03;;;6.90;99.90;;;;;;4931637;29;20543;-88
2022/11/19 10:06:05;;;;;;;9.97;7.87;;;6.90;99.90;;;;;;5017022;28;20543;-87
2022/11/19 10:09:15;;;;;;;11.03;8.60;;;6.80;99.90;;;;;;5012848;28;20515;-85
2022/11/19 10:12:20;;;;;;;9.80;7.93;;;6.80;99.90;;;;;;5023663;28;21102;-86
2022/11/19 11:17:56;;;;;;;8.80;7.30;;;7.10;99.90;;;;;;4943561;29;20482;-84
2022/11/19 11:24:59;;;;;;;11.20;7.70;;;7.00;98.90;;;;;;4954687;28;20484;-86
2022/11/19 11:32:01;;;;;;;10.40;7.63;;;6.90;99.50;;;;;;4984449;28;20415;-87
2022/11/19 11:35:27;;;;;;;10.30;7.00;;;7.00;99.90;;;;;;4950152;28;20479;-90
2022/11/19 11:38:46;;;;;;;10.17;6.93;;;7.00;99.70;;;;;;4974098;28;20532;-88
2022/11/19 11:42:09;;;;;;;10.80;7.53;;;7.10;99.90;;;;;;4902461;28;20890;-86
2022/11/19 11:49:50;;;;;;;8.47;6.63;;;7.20;99.50;;;;;;4968925;28;20518;-85
2022/11/19 11:53:18;;;;;;;;;;;;;;;;;;;;;
2022/11/19 11:56:39;;;;;;;9.50;7.70;;;7.30;99.30;;;;;;4870442;29;20524;-86
2022/11/19 11:59:31;;;;;;;9.60;7.20;;;7.20;99.30;;;;;;4876403;29;20487;-88
2022/11/19 12:02:56;;;;;;;8.70;7.77;;;7.30;99.00;;;;;;4891506;29;20580;-86
2022/11/19 12:06:13;;;;;;;8.43;7.53;;;7.40;98.70;;;;;;4874520;29;20468;-87
2022/11/19 12:31:58;;;;;;;8.30;7.00;;;6.90;99.00;;;;;;4995236;28;20457;-86
2022/11/19 12:35:17;;;;;;;8.70;7.30;;;7.10;99.30;;;;;;4991202;28;21396;-86
2022/11/19 12:38:26;;;;;;;9.83;6.20;;;7.10;98.40;;;;;;4992878;28;20502;-85
2022/11/19 12:45:09;;;;;;;11.60;7.73;;;7.00;98.30;;;;;;5485096;22;20580;-86
2022/11/19 12:48:28;;;;;;;11.00;7.30;;;6.90;98.60;;;;;;4970718;28;20460;-88
2022/11/19 12:52:00;;;;;;;;;;;;;;;;;;;;;
2022/11/19 13:03:33;;;;;;;9.53;7.40;;;7.10;98.60;;;;;;4950956;29;20418;-85
2022/11/19 13:07:14;;;;;;;10.93;7.80;;;7.10;98.30;;;;;;4913085;29;20604;-84
2022/11/19 13:14:14;;;;;;;10.20;8.00;;;7.10;97.60;;;;;;4944540;23;20502;-84
2022/11/19 13:17:47;;;;;;;;;;;;;;;;;;;;;
2022/11/19 13:21:33;;;;;;;8.17;7.10;;;7.20;98.00;;;;;;4940046;28;20528;-87
2022/11/19 13:34:56;;;;;;;9.30;7.50;;;7.00;98.50;;;;;;5058454;22;20532;-86
2022/11/19 13:38:19;;;;;;;9.40;7.27;;;7.20;97.90;;;;;;4947590;28;20546;-87
2022/11/19 13:41:34;;;;;;;9.40;6.50;;;7.00;98.00;;;;;;4978358;28;20951;-86
2022/11/19 13:44:39;;;;;;;10.40;7.20;;;7.10;98.30;;;;;;4938502;29;20465;-83
2022/11/19 13:55:01;;;;;;;9.30;7.97;;;6.90;98.30;;;;;;4940398;28;20519;-84
2022/11/19 13:57:52;;;;;;;9.37;7.70;;;6.90;98.40;;;;;;4920218;29;20458;-84
2022/11/19 14:01:10;;;;;;;10.70;7.40;;;7.00;98.40;;;;;;4923947;29;20552;-86
2022/11/19 14:07:00;;;;;;;9.17;7.70;;;7.20;97.70;;;;;;5284965;22;20521;-87
2022/11/19 14:10:18;;;;;;;10.73;7.80;;;7.10;97.80;;;;;;4912520;29;20443;-84
2022/11/19 14:27:58;;;;;;;11.80;7.90;;;7.20;98.10;;;;;;4889876;29;20457;-89
2022/11/19 14:31:48;;;;;;;9.00;7.20;;;7.20;97.90;;;;;;4936436;29;20530;-87
2022/11/19 14:35:18;;;;;;;10.80;7.30;;;7.00;97.90;;;;;;4930269;28;20602;-89
2022/11/19 14:38:57;;;;;;;10.30;8.00;;;7.00;98.20;;;;;;4930801;29;20471;-90
2022/11/19 14:49:34;;;;;;;10.10;7.27;;;7.20;98.20;;;;;;5097883;22;20513;-87
2022/11/19 15:33:13;;;;;;;10.67;7.23;;;6.90;98.70;;;;;;4979856;28;20462;-86
2022/11/19 15:37:07;;;;;;;18.33;8.40;;;7.00;98.90;;;;;;4931399;28;20485;-85
2022/11/19 15:40:02;;;;;;;9.07;7.17;;;7.00;98.40;;;;;;4894261;29;21014;-84
2022/11/19 15:43:04;;;;;;;8.40;6.60;;;7.10;98.10;;;;;;4897460;28;20546;-87
2022/11/19 15:46:27;;;;;;;13.73;8.50;;;7.00;97.90;;;;;;4961563;28;20466;-87
2022/11/19 15:49:42;;;;;;;9.73;7.03;;;6.90;98.20;;;;;;4938492;29;20552;-86
2022/11/19 15:56:47;;;;;;;;;;;;;;;;;;;;;
2022/11/19 16:04:51;;;;;;;11.17;8.53;;;6.80;98.40;;;;;;4936380;29;20578;-87
2022/11/19 16:18:56;;;;;;;11.43;8.80;;;6.80;98.70;;;;;;4852801;29;20542;-88
2022/11/19 16:22:28;;;;;;;10.97;8.73;;;6.80;98.80;;;;;;4820433;29;20446;-87
2022/11/19 16:29:29;;;;;;;10.10;7.60;;;6.90;98.90;;;;;;4819979;29;20882;-86
2022/11/19 16:32:36;;;;;;;8.93;7.40;;;7.10;98.50;;;;;;4836092;29;20553;-85
2022/11/19 17:26:30;;;;;;;;;;;;;;;;;;;;;
2022/11/19 17:33:16;;;;;;;14.17;9.93;;;6.90;98.20;;;;;;5015792;28;20542;-86
2022/11/19 17:40:03;;;;;;;11.90;8.03;;;6.70;99.10;;;;;;4889317;29;20483;-86
2022/11/19 17:52:03;;;;;;;9.63;7.00;;;6.70;98.80;;;;;;5004864;28;20473;-86
2022/11/19 18:04:38;;;;;;;11.20;8.30;;;6.70;98.60;;;;;;4971932;28;20498;-88
2022/11/19 18:07:19;;;;;;;12.80;7.50;;;6.70;99.00;;;;;;4903452;29;20864;-88
2022/11/19 18:10:40;;;;;;;10.03;7.93;;;6.80;98.70;;;;;;4894365;29;20459;-86
2022/11/19 18:13:52;;;;;;;10.73;9.10;;;6.70;98.40;;;;;;4903784;29;20565;-88
2022/11/19 18:16:38;;;;;;;11.23;8.50;;;6.70;98.30;;;;;;4913630;29;20449;-87
2022/11/19 18:19:38;;;;;;;10.63;8.43;;;6.60;98.50;;;;;;4899005;29;20544;-84
2022/11/19 18:22:34;;;;;;;11.10;8.43;;;6.40;98.60;;;;;;4895186;29;20499;-85
2022/11/19 18:25:53;;;;;;;13.40;9.77;;;6.60;98.70;;;;;;4882858;29;20466;-86
2022/11/19 18:28:55;;;;;;;11.63;9.80;;;6.70;98.90;;;;;;4921118;29;20455;-87
2022/11/19 18:35:40;;;;;;;12.33;9.17;;;6.60;98.60;;;;;;4835110;29;20471;-85
2022/11/19 18:38:25;;;;;;;10.60;8.07;;;6.80;98.20;;;;;;4846426;29;20474;-87
2022/11/19 18:41:46;;;;;;;14.83;10.03;;;6.60;98.30;;;;;;4873082;29;22521;-84
2022/11/19 18:44:54;;;;;;;11.80;8.23;;;6.50;98.30;;;;;;4816615;29;20456;-86
2022/11/19 18:47:43;;;;;;;12.70;7.37;;;6.60;98.20;;;;;;4844760;29;20482;-86
2022/11/19 18:50:56;;;;;;;12.93;9.20;;;6.60;98.00;;;;;;4871766;29;20874;-86
2022/11/19 19:01:29;;;;;;;11.30;7.90;;;6.50;99.10;;;;;;4896349;29;20441;-87
2022/11/19 19:07:56;;;;;;;11.17;8.20;;;6.40;98.50;;;;;;4989216;28;20555;-84
2022/11/19 19:15:03;;;;;;;12.07;8.00;;;6.50;98.70;;;;;;4983037;28;20491;-88
2022/11/19 19:17:33;;;;;;;17.00;10.50;;;6.50;98.90;;;;;;4986054;28;20527;-86
2022/11/19 19:20:31;;;;;;;14.77;9.70;;;6.50;98.50;;;;;;4966160;28;20490;-85
2022/11/19 19:42:44;;;;;;;13.87;9.67;;;6.50;98.60;;;;;;4852253;29;20461;-85
2022/11/19 19:45:47;;;;;;;11.30;8.53;;;6.40;98.40;;;;;;4781063;29;20957;-86
2022/11/19 19:48:39;;;;;;;11.57;8.30;;;6.30;98.60;;;;;;4843386;29;20459;-86
2022/11/19 19:58:55;;;;;;;12.53;8.10;;;6.30;98.90;;;;;;4880412;29;20424;-89
2022/11/19 20:02:03;;;;;;;13.10;9.27;;;6.40;98.30;;;;;;4879379;29;20546;-85
2022/11/19 20:05:06;;;;;;;12.00;10.07;;;6.20;98.10;;;;;;4907141;29;20563;-87
2022/11/19 20:08:10;;;;;;;10.60;8.10;;;6.20;98.40;;;;;;4894175;29;20442;-87
2022/11/19 20:11:23;;;;;;;11.07;8.50;;;6.30;98.40;;;;;;4890146;29;20868;-86
2022/11/19 20:14:23;;;;;;;10.47;8.50;;;6.20;98.60;;;;;;4892820;29;20580;-89
2022/11/19 20:25:48;;;;;;;13.30;8.57;;;6.20;98.60;;;;;;4859126;29;20465;-88
2022/11/19 20:29:16;;;;;;;13.20;9.67;;;6.30;98.20;;;;;;4876401;29;20495;-86
2022/11/19 20:36:26;;;;;;;;;;;;;;;;;;;;;
2022/11/19 20:39:53;;;;;;;10.80;8.27;;;6.10;98.50;;;;;;4977901;28;21292;-85
2022/11/19 20:46:45;;;;;;;12.27;7.77;;;6.20;99.20;;;;;;4998550;23;20835;-85
2022/11/19 21:16:27;;;;;;;12.17;8.53;;;6.10;99.30;;;;;;4849216;29;20468;-87
2022/11/19 21:23:38;;;;;;;;;;;;;;;;;;;;;
2022/11/19 21:34:41;;;;;;;12.40;9.10;;;6.00;98.70;;;;;;4946567;28;20492;-86
2022/11/19 22:11:35;;;;;;;12.87;8.63;;;6.00;98.50;;;;;;4943114;28;20483;-87
2022/11/19 22:18:22;;;;;;;16.23;9.97;;;5.90;99.20;;;;;;4863635;29;20436;-86
2022/11/19 22:29:33;;;;;;;13.07;9.37;;;6.00;99.80;;;;;;4891780;29;20439;-86
2022/11/19 22:32:38;;;;;;;13.60;9.90;;;6.10;99.50;;;;;;4874120;29;20473;-86
2022/11/19 22:40:13;;;;;;;11.90;8.90;;;6.00;99.20;;;;;;4908896;29;20905;-85
2022/11/19 22:42:50;;;;;;;13.40;9.97;;;5.90;99.50;;;;;;4924383;29;20456;-85
2022/11/19 22:45:49;;;;;;;13.80;9.30;;;6.10;99.70;;;;;;5188861;23;21022;-84
2022/11/19 22:48:39;;;;;;;16.03;10.70;;;6.20;99.50;;;;;;5003684;28;20468;-85
2022/11/19 22:56:54;;;;;;;15.00;9.37;;;6.10;99.60;;;;;;5002689;28;20486;-86
2022/11/19 22:59:59;;;;;;;17.13;10.73;;;6.20;99.30;;;;;;4994846;28;20481;-85
2022/11/19 23:06:15;;;;;;;14.47;10.23;;;6.10;99.00;;;;;;5073761;22;21141;-88
2022/11/19 23:09:00;;;;;;;14.80;9.93;;;5.80;99.20;;;;;;4975385;28;20458;-87
2022/11/19 23:16:42;;;;;;;12.50;9.77;;;5.90;99.80;;;;;;4844278;29;20452;-88
2022/11/19 23:26:34;;;;;;;14.73;10.00;;;6.20;98.80;;;;;;4942126;29;20574;-87
2022/11/19 23:32:43;;;;;;;;;;;;;;;;;;;;;
2022/11/19 23:35:46;;;;;;;15.87;10.20;;;6.40;98.60;;;;;;5014653;22;21000;-86
2022/11/19 23:39:13;;;;;;;;;;;;;;;;;;;;;
2022/11/19 23:51:18;;;;;;;13.63;10.00;;;6.20;98.90;;;;;;5030090;22;21039;-86
2022/11/19 23:53:46;;;;;;;13.40;10.33;;;6.20;98.60;;;;;;4972762;28;20468;-84
2022/11/19 23:56:14;;;;;;;13.37;10.20;;;6.20;98.40;;;;;;4990843;28;20461;-86
